sensor_id;sensor_type;location;lat;lon;timestamp;P1;durP1;ratioP1;P2;durP2;ratioP2
15488;SDS011;7846;48.830;9.116;2023-06-10T00:01:47;3.23;;;2.93;;
15488;SDS011;7846;48.830;9.116;2023-06-10T00:04:13;2.67;;;2.47;;
15488;SDS011;7846;48.830;9.116;2023-06-10T00:06:41;3.40;;;2.70;;
15488;SDS011;7846;48.830;9.116;2023-06-10T00:09:08;2.70;;;2.50;;
15488;SDS011;7846;48.830;9.116;2023-06-10T00:11:37;2.77;;;2.57;;
15488;SDS011;7846;48.830;9.116;2023-06-10T00:14:03;2.63;;;2.43;;
15488;SDS011;7846;48.830;9.116;2023-06-10T00:16:28;2.80;;;2.60;;
15488;SDS011;7846;48.830;9.116;2023-06-10T00:18:55;3.73;;;3.20;;
15488;SDS011;7846;48.830;9.116;2023-06-10T00:21:21;3.20;;;2.90;;
15488;SDS011;7846;48.830;9.116;2023-06-10T00:23:48;3.20;;;2.90;;
15488;SDS011;7846;48.830;9.116;2023-06-10T00:26:13;3.03;;;2.77;;
15488;SDS011;7846;48.830;9.116;2023-06-10T00:28:38;2.93;;;2.67;;
15488;SDS011;7846;48.830;9.116;2023-06-10T00:31:04;2.73;;;2.30;;
15488;SDS011;7846;48.830;9.116;2023-06-10T00:33:31;3.90;;;2.73;;
15488;SDS011;7846;48.830;9.116;2023-06-10T00:35:56;3.80;;;2.77;;
15488;SDS011;7846;48.830;9.116;2023-06-10T00:38:22;2.87;;;2.67;;
15488;SDS011;7846;48.830;9.116;2023-06-10T00:40:48;3.17;;;2.80;;
15488;SDS011;7846;48.830;9.116;2023-06-10T00:43:15;2.87;;;2.67;;
15488;SDS011;7846;48.830;9.116;2023-06-10T00:45:42;4.00;;;2.80;;
15488;SDS011;7846;48.830;9.116;2023-06-10T00:48:09;3.17;;;2.67;;
15488;SDS011;7846;48.830;9.116;2023-06-10T00:50:35;3.00;;;2.70;;
15488;SDS011;7846;48.830;9.116;2023-06-10T00:53:04;4.53;;;2.50;;
15488;SDS011;7846;48.830;9.116;2023-06-10T00:55:30;2.67;;;2.47;;
15488;SDS011;7846;48.830;9.116;2023-06-10T00:57:57;2.60;;;2.37;;
15488;SDS011;7846;48.830;9.116;2023-06-10T01:00:23;2.77;;;2.57;;
15488;SDS011;7846;48.830;9.116;2023-06-10T01:02:48;2.60;;;2.40;;
15488;SDS011;7846;48.830;9.116;2023-06-10T01:05:14;2.87;;;2.60;;
15488;SDS011;7846;48.830;9.116;2023-06-10T01:07:42;3.80;;;3.27;;
15488;SDS011;7846;48.830;9.116;2023-06-10T01:10:33;2.80;;;2.50;;
15488;SDS011;7846;48.830;9.116;2023-06-10T01:13:05;2.60;;;2.40;;
15488;SDS011;7846;48.830;9.116;2023-06-10T01:15:34;2.57;;;2.37;;
15488;SDS011;7846;48.830;9.116;2023-06-10T01:18:01;2.73;;;2.40;;
15488;SDS011;7846;48.830;9.116;2023-06-10T01:20:28;3.20;;;2.90;;
15488;SDS011;7846;48.830;9.116;2023-06-10T01:22:55;2.77;;;2.57;;
15488;SDS011;7846;48.830;9.116;2023-06-10T01:25:21;3.73;;;2.90;;
15488;SDS011;7846;48.830;9.116;2023-06-10T01:28:14;2.90;;;2.70;;
15488;SDS011;7846;48.830;9.116;2023-06-10T01:30:53;2.87;;;2.47;;
15488;SDS011;7846;48.830;9.116;2023-06-10T01:33:27;2.67;;;2.47;;
15488;SDS011;7846;48.830;9.116;2023-06-10T01:35:55;4.07;;;3.10;;
15488;SDS011;7846;48.830;9.116;2023-06-10T01:38:22;2.50;;;2.30;;
15488;SDS011;7846;48.830;9.116;2023-06-10T01:40:51;3.73;;;3.33;;
15488;SDS011;7846;48.830;9.116;2023-06-10T01:43:19;2.60;;;2.40;;
15488;SDS011;7846;48.830;9.116;2023-06-10T01:45:45;2.73;;;2.53;;
15488;SDS011;7846;48.830;9.116;2023-06-10T01:48:12;3.23;;;2.57;;
15488;SDS011;7846;48.830;9.116;2023-06-10T01:50:38;3.00;;;2.67;;
15488;SDS011;7846;48.830;9.116;2023-06-10T01:53:04;3.07;;;2.73;;
15488;SDS011;7846;48.830;9.116;2023-06-10T01:55:31;3.27;;;2.97;;
15488;SDS011;7846;48.830;9.116;2023-06-10T01:57:56;3.73;;;2.60;;
15488;SDS011;7846;48.830;9.116;2023-06-10T02:00:22;2.83;;;2.53;;
15488;SDS011;7846;48.830;9.116;2023-06-10T02:02:47;3.00;;;2.80;;
15488;SDS011;7846;48.830;9.116;2023-06-10T02:05:13;2.97;;;2.77;;
15488;SDS011;7846;48.830;9.116;2023-06-10T02:07:38;2.90;;;2.70;;
15488;SDS011;7846;48.830;9.116;2023-06-10T02:10:04;2.63;;;2.43;;
15488;SDS011;7846;48.830;9.116;2023-06-10T02:12:30;2.97;;;2.70;;
15488;SDS011;7846;48.830;9.116;2023-06-10T02:14:55;3.17;;;2.53;;
15488;SDS011;7846;48.830;9.116;2023-06-10T02:17:21;2.87;;;2.57;;
15488;SDS011;7846;48.830;9.116;2023-06-10T02:19:48;3.37;;;2.83;;
15488;SDS011;7846;48.830;9.116;2023-06-10T02:22:21;2.60;;;2.40;;
15488;SDS011;7846;48.830;9.116;2023-06-10T02:24:47;3.10;;;2.67;;
15488;SDS011;7846;48.830;9.116;2023-06-10T02:27:12;3.77;;;2.93;;
15488;SDS011;7846;48.830;9.116;2023-06-10T02:29:38;3.57;;;2.70;;
15488;SDS011;7846;48.830;9.116;2023-06-10T02:32:03;2.43;;;2.23;;
15488;SDS011;7846;48.830;9.116;2023-06-10T02:34:29;3.87;;;2.67;;
15488;SDS011;7846;48.830;9.116;2023-06-10T02:36:56;3.20;;;3.00;;
15488;SDS011;7846;48.830;9.116;2023-06-10T02:39:21;3.30;;;3.00;;
15488;SDS011;7846;48.830;9.116;2023-06-10T02:41:47;3.40;;;2.87;;
15488;SDS011;7846;48.830;9.116;2023-06-10T02:44:16;2.90;;;2.57;;
15488;SDS011;7846;48.830;9.116;2023-06-10T02:46:42;3.07;;;2.77;;
15488;SDS011;7846;48.830;9.116;2023-06-10T02:49:08;3.40;;;3.10;;
15488;SDS011;7846;48.830;9.116;2023-06-10T02:51:34;2.83;;;2.50;;
15488;SDS011;7846;48.830;9.116;2023-06-10T02:54:02;2.77;;;2.57;;
15488;SDS011;7846;48.830;9.116;2023-06-10T02:56:27;3.17;;;2.87;;
15488;SDS011;7846;48.830;9.116;2023-06-10T02:58:52;3.27;;;2.50;;
15488;SDS011;7846;48.830;9.116;2023-06-10T03:01:18;3.10;;;2.80;;
15488;SDS011;7846;48.830;9.116;2023-06-10T03:03:45;4.90;;;3.27;;
15488;SDS011;7846;48.830;9.116;2023-06-10T03:06:13;3.23;;;2.27;;
15488;SDS011;7846;48.830;9.116;2023-06-10T03:08:39;3.43;;;2.73;;
15488;SDS011;7846;48.830;9.116;2023-06-10T03:11:05;3.57;;;3.10;;
15488;SDS011;7846;48.830;9.116;2023-06-10T03:13:30;3.53;;;2.87;;
15488;SDS011;7846;48.830;9.116;2023-06-10T03:15:58;3.23;;;2.93;;
15488;SDS011;7846;48.830;9.116;2023-06-10T03:18:25;3.20;;;2.90;;
15488;SDS011;7846;48.830;9.116;2023-06-10T03:20:52;3.37;;;3.07;;
15488;SDS011;7846;48.830;9.116;2023-06-10T03:23:17;2.77;;;2.57;;
15488;SDS011;7846;48.830;9.116;2023-06-10T03:25:43;2.93;;;2.73;;
15488;SDS011;7846;48.830;9.116;2023-06-10T03:28:09;2.57;;;2.37;;
15488;SDS011;7846;48.830;9.116;2023-06-10T03:30:35;4.13;;;3.00;;
15488;SDS011;7846;48.830;9.116;2023-06-10T03:33:00;2.67;;;2.47;;
15488;SDS011;7846;48.830;9.116;2023-06-10T03:35:26;2.57;;;2.37;;
15488;SDS011;7846;48.830;9.116;2023-06-10T03:37:53;2.67;;;2.40;;
15488;SDS011;7846;48.830;9.116;2023-06-10T03:40:19;2.60;;;2.40;;
15488;SDS011;7846;48.830;9.116;2023-06-10T03:42:44;2.70;;;2.50;;
15488;SDS011;7846;48.830;9.116;2023-06-10T03:45:10;2.93;;;2.67;;
15488;SDS011;7846;48.830;9.116;2023-06-10T03:47:36;2.70;;;2.50;;
15488;SDS011;7846;48.830;9.116;2023-06-10T03:50:05;3.37;;;2.53;;
15488;SDS011;7846;48.830;9.116;2023-06-10T03:52:32;3.07;;;2.50;;
15488;SDS011;7846;48.830;9.116;2023-06-10T03:54:58;2.40;;;2.20;;
15488;SDS011;7846;48.830;9.116;2023-06-10T03:57:26;3.27;;;2.97;;
15488;SDS011;7846;48.830;9.116;2023-06-10T03:59:54;2.47;;;2.37;;
15488;SDS011;7846;48.830;9.116;2023-06-10T04:02:20;3.00;;;2.70;;
15488;SDS011;7846;48.830;9.116;2023-06-10T04:04:47;3.13;;;2.83;;
15488;SDS011;7846;48.830;9.116;2023-06-10T04:07:12;2.50;;;2.30;;
15488;SDS011;7846;48.830;9.116;2023-06-10T04:09:38;2.73;;;2.53;;
15488;SDS011;7846;48.830;9.116;2023-06-10T04:12:05;2.40;;;2.20;;
15488;SDS011;7846;48.830;9.116;2023-06-10T04:14:35;2.53;;;2.33;;
15488;SDS011;7846;48.830;9.116;2023-06-10T04:17:02;2.87;;;2.57;;
15488;SDS011;7846;48.830;9.116;2023-06-10T04:19:32;2.23;;;2.03;;
15488;SDS011;7846;48.830;9.116;2023-06-10T04:21:57;2.57;;;2.37;;
15488;SDS011;7846;48.830;9.116;2023-06-10T04:24:25;2.33;;;2.20;;
15488;SDS011;7846;48.830;9.116;2023-06-10T04:26:51;2.37;;;2.17;;
15488;SDS011;7846;48.830;9.116;2023-06-10T04:29:16;2.67;;;2.47;;
15488;SDS011;7846;48.830;9.116;2023-06-10T04:31:42;2.60;;;2.40;;
15488;SDS011;7846;48.830;9.116;2023-06-10T04:34:08;3.03;;;2.73;;
15488;SDS011;7846;48.830;9.116;2023-06-10T04:36:33;2.53;;;2.33;;
15488;SDS011;7846;48.830;9.116;2023-06-10T04:39:00;2.43;;;2.23;;
15488;SDS011;7846;48.830;9.116;2023-06-10T04:41:26;4.33;;;2.80;;
15488;SDS011;7846;48.830;9.116;2023-06-10T04:43:52;2.67;;;2.47;;
15488;SDS011;7846;48.830;9.116;2023-06-10T04:46:18;2.83;;;2.63;;
15488;SDS011;7846;48.830;9.116;2023-06-10T04:48:45;4.63;;;2.53;;
15488;SDS011;7846;48.830;9.116;2023-06-10T04:51:12;2.90;;;2.70;;
15488;SDS011;7846;48.830;9.116;2023-06-10T04:53:39;2.80;;;2.43;;
15488;SDS011;7846;48.830;9.116;2023-06-10T04:56:04;2.93;;;2.73;;
15488;SDS011;7846;48.830;9.116;2023-06-10T04:58:29;2.67;;;2.47;;
15488;SDS011;7846;48.830;9.116;2023-06-10T05:00:56;3.23;;;2.90;;
15488;SDS011;7846;48.830;9.116;2023-06-10T05:03:23;3.63;;;2.90;;
15488;SDS011;7846;48.830;9.116;2023-06-10T05:05:48;2.83;;;2.63;;
15488;SDS011;7846;48.830;9.116;2023-06-10T05:08:13;2.53;;;2.33;;
15488;SDS011;7846;48.830;9.116;2023-06-10T05:10:39;3.33;;;2.50;;
15488;SDS011;7846;48.830;9.116;2023-06-10T05:13:04;3.20;;;2.90;;
15488;SDS011;7846;48.830;9.116;2023-06-10T05:15:30;2.87;;;2.67;;
15488;SDS011;7846;48.830;9.116;2023-06-10T05:17:58;2.77;;;2.57;;
15488;SDS011;7846;48.830;9.116;2023-06-10T05:20:25;4.73;;;2.70;;
15488;SDS011;7846;48.830;9.116;2023-06-10T05:22:50;3.37;;;2.50;;
15488;SDS011;7846;48.830;9.116;2023-06-10T05:25:16;3.17;;;2.87;;
15488;SDS011;7846;48.830;9.116;2023-06-10T05:27:42;2.90;;;2.70;;
15488;SDS011;7846;48.830;9.116;2023-06-10T05:30:08;2.47;;;2.27;;
15488;SDS011;7846;48.830;9.116;2023-06-10T05:32:36;2.93;;;2.43;;
15488;SDS011;7846;48.830;9.116;2023-06-10T05:35:01;1.90;;;1.80;;
15488;SDS011;7846;48.830;9.116;2023-06-10T05:37:28;2.50;;;2.30;;
15488;SDS011;7846;48.830;9.116;2023-06-10T05:39:54;2.53;;;1.70;;
15488;SDS011;7846;48.830;9.116;2023-06-10T05:42:19;2.00;;;1.90;;
15488;SDS011;7846;48.830;9.116;2023-06-10T05:44:45;1.80;;;1.70;;
15488;SDS011;7846;48.830;9.116;2023-06-10T05:47:10;1.90;;;1.67;;
15488;SDS011;7846;48.830;9.116;2023-06-10T05:49:36;1.90;;;1.80;;
15488;SDS011;7846;48.830;9.116;2023-06-10T05:52:01;2.00;;;1.90;;
15488;SDS011;7846;48.830;9.116;2023-06-10T05:54:28;1.87;;;1.77;;
15488;SDS011;7846;48.830;9.116;2023-06-10T05:56:53;1.73;;;1.63;;
15488;SDS011;7846;48.830;9.116;2023-06-10T05:59:20;1.67;;;1.57;;
15488;SDS011;7846;48.830;9.116;2023-06-10T06:01:45;1.63;;;1.53;;
15488;SDS011;7846;48.830;9.116;2023-06-10T06:04:10;1.80;;;1.70;;
15488;SDS011;7846;48.830;9.116;2023-06-10T06:06:38;1.73;;;1.63;;
15488;SDS011;7846;48.830;9.116;2023-06-10T06:09:04;2.03;;;1.83;;
15488;SDS011;7846;48.830;9.116;2023-06-10T06:11:29;1.93;;;1.83;;
15488;SDS011;7846;48.830;9.116;2023-06-10T06:13:55;1.77;;;1.67;;
15488;SDS011;7846;48.830;9.116;2023-06-10T06:16:21;1.60;;;1.50;;
15488;SDS011;7846;48.830;9.116;2023-06-10T06:18:46;1.83;;;1.73;;
15488;SDS011;7846;48.830;9.116;2023-06-10T06:21:11;2.07;;;1.97;;
15488;SDS011;7846;48.830;9.116;2023-06-10T06:23:37;1.60;;;1.50;;
15488;SDS011;7846;48.830;9.116;2023-06-10T06:26:02;1.77;;;1.67;;
15488;SDS011;7846;48.830;9.116;2023-06-10T06:28:28;2.00;;;1.80;;
15488;SDS011;7846;48.830;9.116;2023-06-10T06:30:56;1.47;;;1.37;;
15488;SDS011;7846;48.830;9.116;2023-06-10T06:33:21;1.87;;;1.77;;
15488;SDS011;7846;48.830;9.116;2023-06-10T06:35:47;1.90;;;1.80;;
15488;SDS011;7846;48.830;9.116;2023-06-10T06:38:12;2.70;;;1.70;;
15488;SDS011;7846;48.830;9.116;2023-06-10T06:40:37;2.00;;;1.90;;
15488;SDS011;7846;48.830;9.116;2023-06-10T06:43:03;2.07;;;1.90;;
15488;SDS011;7846;48.830;9.116;2023-06-10T06:45:28;1.40;;;1.30;;
15488;SDS011;7846;48.830;9.116;2023-06-10T06:47:53;2.20;;;1.77;;
15488;SDS011;7846;48.830;9.116;2023-06-10T06:50:19;2.13;;;1.87;;
15488;SDS011;7846;48.830;9.116;2023-06-10T06:52:44;1.70;;;1.60;;
15488;SDS011;7846;48.830;9.116;2023-06-10T06:55:10;1.60;;;1.50;;
15488;SDS011;7846;48.830;9.116;2023-06-10T06:57:36;1.70;;;1.60;;
15488;SDS011;7846;48.830;9.116;2023-06-10T07:00:02;1.83;;;1.73;;
15488;SDS011;7846;48.830;9.116;2023-06-10T07:02:30;1.80;;;1.70;;
15488;SDS011;7846;48.830;9.116;2023-06-10T07:04:57;1.70;;;1.60;;
15488;SDS011;7846;48.830;9.116;2023-06-10T07:07:23;2.47;;;1.70;;
15488;SDS011;7846;48.830;9.116;2023-06-10T07:09:49;1.37;;;1.37;;
15488;SDS011;7846;48.830;9.116;2023-06-10T07:12:14;1.50;;;1.40;;
15488;SDS011;7846;48.830;9.116;2023-06-10T07:14:40;1.80;;;1.70;;
15488;SDS011;7846;48.830;9.116;2023-06-10T07:17:05;1.70;;;1.60;;
15488;SDS011;7846;48.830;9.116;2023-06-10T07:19:30;2.63;;;1.67;;
15488;SDS011;7846;48.830;9.116;2023-06-10T07:21:59;1.83;;;1.73;;
15488;SDS011;7846;48.830;9.116;2023-06-10T07:24:25;1.77;;;1.63;;
15488;SDS011;7846;48.830;9.116;2023-06-10T07:26:50;1.80;;;1.63;;
15488;SDS011;7846;48.830;9.116;2023-06-10T07:29:16;1.70;;;1.60;;
15488;SDS011;7846;48.830;9.116;2023-06-10T07:31:43;1.90;;;1.80;;
15488;SDS011;7846;48.830;9.116;2023-06-10T07:34:09;1.43;;;1.33;;
15488;SDS011;7846;48.830;9.116;2023-06-10T07:36:35;2.00;;;1.67;;
15488;SDS011;7846;48.830;9.116;2023-06-10T07:39:01;1.77;;;1.67;;
15488;SDS011;7846;48.830;9.116;2023-06-10T07:41:27;1.50;;;1.40;;
15488;SDS011;7846;48.830;9.116;2023-06-10T07:43:53;2.10;;;1.63;;
15488;SDS011;7846;48.830;9.116;2023-06-10T07:46:22;1.97;;;1.87;;
15488;SDS011;7846;48.830;9.116;2023-06-10T07:48:49;1.63;;;1.53;;
15488;SDS011;7846;48.830;9.116;2023-06-10T07:51:15;1.70;;;1.60;;
15488;SDS011;7846;48.830;9.116;2023-06-10T07:53:41;1.70;;;1.60;;
15488;SDS011;7846;48.830;9.116;2023-06-10T07:56:07;1.67;;;1.57;;
15488;SDS011;7846;48.830;9.116;2023-06-10T07:58:32;1.67;;;1.57;;
15488;SDS011;7846;48.830;9.116;2023-06-10T08:00:57;1.93;;;1.83;;
15488;SDS011;7846;48.830;9.116;2023-06-10T08:03:24;1.60;;;1.50;;
15488;SDS011;7846;48.830;9.116;2023-06-10T08:05:49;1.70;;;1.60;;
15488;SDS011;7846;48.830;9.116;2023-06-10T08:08:15;2.00;;;1.90;;
15488;SDS011;7846;48.830;9.116;2023-06-10T08:10:52;1.23;;;1.23;;
15488;SDS011;7846;48.830;9.116;2023-06-10T08:13:19;1.60;;;1.50;;
15488;SDS011;7846;48.830;9.116;2023-06-10T08:15:48;1.60;;;1.50;;
15488;SDS011;7846;48.830;9.116;2023-06-10T08:18:15;2.27;;;1.90;;
15488;SDS011;7846;48.830;9.116;2023-06-10T08:20:41;1.73;;;1.63;;
15488;SDS011;7846;48.830;9.116;2023-06-10T08:23:07;1.87;;;1.77;;
15488;SDS011;7846;48.830;9.116;2023-06-10T08:25:33;1.70;;;1.60;;
15488;SDS011;7846;48.830;9.116;2023-06-10T08:27:58;1.90;;;1.80;;
15488;SDS011;7846;48.830;9.116;2023-06-10T08:30:26;1.80;;;1.70;;
15488;SDS011;7846;48.830;9.116;2023-06-10T08:32:52;1.90;;;1.80;;
15488;SDS011;7846;48.830;9.116;2023-06-10T08:35:17;2.30;;;2.10;;
15488;SDS011;7846;48.830;9.116;2023-06-10T08:37:42;2.00;;;1.77;;
15488;SDS011;7846;48.830;9.116;2023-06-10T08:40:09;2.00;;;1.90;;
15488;SDS011;7846;48.830;9.116;2023-06-10T08:45:18;1.67;;;1.57;;
15488;SDS011;7846;48.830;9.116;2023-06-10T08:47:48;1.67;;;1.57;;
15488;SDS011;7846;48.830;9.116;2023-06-10T08:50:16;1.80;;;1.70;;
15488;SDS011;7846;48.830;9.116;2023-06-10T08:52:43;1.77;;;1.67;;
15488;SDS011;7846;48.830;9.116;2023-06-10T08:55:44;1.80;;;1.70;;
15488;SDS011;7846;48.830;9.116;2023-06-10T08:58:04;1.80;;;1.70;;
15488;SDS011;7846;48.830;9.116;2023-06-10T09:00:31;1.70;;;1.60;;
15488;SDS011;7846;48.830;9.116;2023-06-10T09:02:57;2.17;;;2.07;;
15488;SDS011;7846;48.830;9.116;2023-06-10T09:05:24;1.83;;;1.73;;
15488;SDS011;7846;48.830;9.116;2023-06-10T09:07:52;2.07;;;1.97;;
15488;SDS011;7846;48.830;9.116;2023-06-10T09:10:18;1.60;;;1.50;;
15488;SDS011;7846;48.830;9.116;2023-06-10T09:12:44;2.27;;;2.10;;
15488;SDS011;7846;48.830;9.116;2023-06-10T09:15:10;2.03;;;1.93;;
15488;SDS011;7846;48.830;9.116;2023-06-10T09:17:37;1.70;;;1.60;;
15488;SDS011;7846;48.830;9.116;2023-06-10T09:20:05;2.10;;;2.00;;
15488;SDS011;7846;48.830;9.116;2023-06-10T09:22:30;2.00;;;1.90;;
15488;SDS011;7846;48.830;9.116;2023-06-10T09:25:05;1.80;;;1.70;;
15488;SDS011;7846;48.830;9.116;2023-06-10T09:27:33;1.80;;;1.70;;
15488;SDS011;7846;48.830;9.116;2023-06-10T09:30:10;2.47;;;1.80;;
15488;SDS011;7846;48.830;9.116;2023-06-10T09:32:38;1.70;;;1.60;;
15488;SDS011;7846;48.830;9.116;2023-06-10T09:35:08;1.80;;;1.70;;
15488;SDS011;7846;48.830;9.116;2023-06-10T09:37:34;1.67;;;1.57;;
15488;SDS011;7846;48.830;9.116;2023-06-10T09:40:07;1.90;;;1.80;;
15488;SDS011;7846;48.830;9.116;2023-06-10T09:42:35;1.43;;;1.43;;
15488;SDS011;7846;48.830;9.116;2023-06-10T09:45:03;1.83;;;1.73;;
15488;SDS011;7846;48.830;9.116;2023-06-10T09:47:30;1.67;;;1.57;;
15488;SDS011;7846;48.830;9.116;2023-06-10T09:49:55;1.70;;;1.60;;
15488;SDS011;7846;48.830;9.116;2023-06-10T09:52:21;1.77;;;1.67;;
15488;SDS011;7846;48.830;9.116;2023-06-10T09:54:51;1.30;;;1.20;;
15488;SDS011;7846;48.830;9.116;2023-06-10T09:57:17;1.60;;;1.50;;
15488;SDS011;7846;48.830;9.116;2023-06-10T09:59:44;1.80;;;1.70;;
15488;SDS011;7846;48.830;9.116;2023-06-10T10:02:16;1.97;;;1.87;;
15488;SDS011;7846;48.830;9.116;2023-06-10T10:04:43;1.90;;;1.80;;
15488;SDS011;7846;48.830;9.116;2023-06-10T10:07:09;1.87;;;1.77;;
15488;SDS011;7846;48.830;9.116;2023-06-10T10:09:38;1.70;;;1.60;;
15488;SDS011;7846;48.830;9.116;2023-06-10T10:12:09;1.97;;;1.87;;
15488;SDS011;7846;48.830;9.116;2023-06-10T10:14:36;2.00;;;1.90;;
15488;SDS011;7846;48.830;9.116;2023-06-10T10:17:03;1.90;;;1.80;;
15488;SDS011;7846;48.830;9.116;2023-06-10T10:19:34;1.77;;;1.67;;
15488;SDS011;7846;48.830;9.116;2023-06-10T10:22:07;1.67;;;1.57;;
15488;SDS011;7846;48.830;9.116;2023-06-10T10:24:37;1.73;;;1.63;;
15488;SDS011;7846;48.830;9.116;2023-06-10T10:27:07;2.00;;;1.90;;
15488;SDS011;7846;48.830;9.116;2023-06-10T10:29:39;1.80;;;1.70;;
15488;SDS011;7846;48.830;9.116;2023-06-10T10:32:09;1.73;;;1.63;;
15488;SDS011;7846;48.830;9.116;2023-06-10T10:34:42;1.73;;;1.63;;
15488;SDS011;7846;48.830;9.116;2023-06-10T10:37:19;1.90;;;1.80;;
15488;SDS011;7846;48.830;9.116;2023-06-10T10:39:45;1.77;;;1.67;;
15488;SDS011;7846;48.830;9.116;2023-06-10T10:42:10;1.73;;;1.63;;
15488;SDS011;7846;48.830;9.116;2023-06-10T10:44:39;1.30;;;1.30;;
15488;SDS011;7846;48.830;9.116;2023-06-10T10:47:07;1.67;;;1.57;;
15488;SDS011;7846;48.830;9.116;2023-06-10T10:49:35;1.83;;;1.73;;
15488;SDS011;7846;48.830;9.116;2023-06-10T10:52:02;1.90;;;1.80;;
15488;SDS011;7846;48.830;9.116;2023-06-10T10:54:34;1.90;;;1.77;;
15488;SDS011;7846;48.830;9.116;2023-06-10T10:59:43;2.00;;;1.90;;
15488;SDS011;7846;48.830;9.116;2023-06-10T11:05:04;1.70;;;1.60;;
15488;SDS011;7846;48.830;9.116;2023-06-10T11:07:31;1.90;;;1.80;;
15488;SDS011;7846;48.830;9.116;2023-06-10T11:10:10;1.60;;;1.50;;
15488;SDS011;7846;48.830;9.116;2023-06-10T11:15:27;2.63;;;1.73;;
15488;SDS011;7846;48.830;9.116;2023-06-10T11:18:06;1.80;;;1.70;;
15488;SDS011;7846;48.830;9.116;2023-06-10T11:26:10;1.83;;;1.73;;
15488;SDS011;7846;48.830;9.116;2023-06-10T11:29:04;1.83;;;1.73;;
15488;SDS011;7846;48.830;9.116;2023-06-10T11:31:43;1.53;;;1.50;;
15488;SDS011;7846;48.830;9.116;2023-06-10T11:34:10;1.70;;;1.60;;
15488;SDS011;7846;48.830;9.116;2023-06-10T11:36:37;1.80;;;1.70;;
15488;SDS011;7846;48.830;9.116;2023-06-10T11:39:05;1.70;;;1.60;;
15488;SDS011;7846;48.830;9.116;2023-06-10T11:41:32;1.70;;;1.60;;
15488;SDS011;7846;48.830;9.116;2023-06-10T11:44:02;1.83;;;1.60;;
15488;SDS011;7846;48.830;9.116;2023-06-10T11:46:29;1.70;;;1.60;;
15488;SDS011;7846;48.830;9.116;2023-06-10T11:48:55;1.60;;;1.50;;
15488;SDS011;7846;48.830;9.116;2023-06-10T11:51:25;1.60;;;1.50;;
15488;SDS011;7846;48.830;9.116;2023-06-10T11:53:56;1.60;;;1.50;;
15488;SDS011;7846;48.830;9.116;2023-06-10T11:56:22;1.60;;;1.50;;
15488;SDS011;7846;48.830;9.116;2023-06-10T11:58:52;1.47;;;1.37;;
15488;SDS011;7846;48.830;9.116;2023-06-10T12:01:21;1.57;;;1.43;;
15488;SDS011;7846;48.830;9.116;2023-06-10T12:03:49;1.70;;;1.60;;
15488;SDS011;7846;48.830;9.116;2023-06-10T12:06:22;1.53;;;1.43;;
15488;SDS011;7846;48.830;9.116;2023-06-10T12:08:49;1.60;;;1.50;;
15488;SDS011;7846;48.830;9.116;2023-06-10T12:11:14;1.77;;;1.67;;
15488;SDS011;7846;48.830;9.116;2023-06-10T12:13:45;1.70;;;1.60;;
15488;SDS011;7846;48.830;9.116;2023-06-10T12:16:15;1.83;;;1.70;;
15488;SDS011;7846;48.830;9.116;2023-06-10T12:18:46;1.70;;;1.60;;
15488;SDS011;7846;48.830;9.116;2023-06-10T12:21:23;1.40;;;1.30;;
15488;SDS011;7846;48.830;9.116;2023-06-10T12:26:53;1.67;;;1.57;;
15488;SDS011;7846;48.830;9.116;2023-06-10T12:29:21;1.43;;;1.43;;
15488;SDS011;7846;48.830;9.116;2023-06-10T12:31:57;1.27;;;1.27;;
15488;SDS011;7846;48.830;9.116;2023-06-10T12:37:06;1.60;;;1.50;;
15488;SDS011;7846;48.830;9.116;2023-06-10T12:39:42;1.70;;;1.60;;
15488;SDS011;7846;48.830;9.116;2023-06-10T12:42:17;1.60;;;1.50;;
15488;SDS011;7846;48.830;9.116;2023-06-10T12:44:47;1.50;;;1.40;;
15488;SDS011;7846;48.830;9.116;2023-06-10T12:47:18;1.20;;;1.20;;
15488;SDS011;7846;48.830;9.116;2023-06-10T12:49:43;1.53;;;1.43;;
15488;SDS011;7846;48.830;9.116;2023-06-10T12:52:09;1.47;;;1.40;;
15488;SDS011;7846;48.830;9.116;2023-06-10T12:54:36;1.80;;;1.70;;
15488;SDS011;7846;48.830;9.116;2023-06-10T12:57:03;1.63;;;1.53;;
15488;SDS011;7846;48.830;9.116;2023-06-10T12:59:29;1.60;;;1.50;;
15488;SDS011;7846;48.830;9.116;2023-06-10T13:01:54;1.57;;;1.47;;
15488;SDS011;7846;48.830;9.116;2023-06-10T13:04:20;1.33;;;1.30;;
15488;SDS011;7846;48.830;9.116;2023-06-10T13:06:47;1.30;;;1.30;;
15488;SDS011;7846;48.830;9.116;2023-06-10T13:09:14;1.40;;;1.40;;
15488;SDS011;7846;48.830;9.116;2023-06-10T13:11:40;1.50;;;1.40;;
15488;SDS011;7846;48.830;9.116;2023-06-10T13:14:07;1.50;;;1.40;;
15488;SDS011;7846;48.830;9.116;2023-06-10T13:16:36;1.40;;;1.40;;
15488;SDS011;7846;48.830;9.116;2023-06-10T13:19:03;1.10;;;1.10;;
15488;SDS011;7846;48.830;9.116;2023-06-10T13:21:30;1.20;;;1.20;;
15488;SDS011;7846;48.830;9.116;2023-06-10T13:23:58;1.37;;;1.27;;
15488;SDS011;7846;48.830;9.116;2023-06-10T13:26:24;1.40;;;1.30;;
15488;SDS011;7846;48.830;9.116;2023-06-10T13:28:50;1.17;;;1.17;;
15488;SDS011;7846;48.830;9.116;2023-06-10T13:31:15;1.80;;;1.70;;
15488;SDS011;7846;48.830;9.116;2023-06-10T13:33:41;1.50;;;1.40;;
15488;SDS011;7846;48.830;9.116;2023-06-10T13:36:08;1.30;;;1.30;;
15488;SDS011;7846;48.830;9.116;2023-06-10T13:38:33;1.17;;;1.17;;
15488;SDS011;7846;48.830;9.116;2023-06-10T13:40:59;1.33;;;1.27;;
15488;SDS011;7846;48.830;9.116;2023-06-10T13:43:24;1.73;;;1.63;;
15488;SDS011;7846;48.830;9.116;2023-06-10T13:45:49;1.50;;;1.27;;
15488;SDS011;7846;48.830;9.116;2023-06-10T13:48:15;1.20;;;1.20;;
15488;SDS011;7846;48.830;9.116;2023-06-10T13:50:41;1.37;;;1.33;;
15488;SDS011;7846;48.830;9.116;2023-06-10T13:53:10;1.40;;;1.30;;
15488;SDS011;7846;48.830;9.116;2023-06-10T13:55:36;1.47;;;1.37;;
15488;SDS011;7846;48.830;9.116;2023-06-10T13:58:01;1.20;;;1.20;;
15488;SDS011;7846;48.830;9.116;2023-06-10T14:00:27;1.10;;;1.10;;
15488;SDS011;7846;48.830;9.116;2023-06-10T14:02:53;1.13;;;1.13;;
15488;SDS011;7846;48.830;9.116;2023-06-10T14:05:18;1.20;;;1.20;;
15488;SDS011;7846;48.830;9.116;2023-06-10T14:07:44;1.40;;;1.40;;
15488;SDS011;7846;48.830;9.116;2023-06-10T14:10:09;1.07;;;1.07;;
15488;SDS011;7846;48.830;9.116;2023-06-10T14:12:35;1.23;;;1.23;;
15488;SDS011;7846;48.830;9.116;2023-06-10T14:15:01;1.17;;;1.17;;
15488;SDS011;7846;48.830;9.116;2023-06-10T14:17:29;1.20;;;1.20;;
15488;SDS011;7846;48.830;9.116;2023-06-10T14:19:55;1.30;;;1.30;;
15488;SDS011;7846;48.830;9.116;2023-06-10T14:22:20;1.30;;;1.20;;
15488;SDS011;7846;48.830;9.116;2023-06-10T14:24:46;1.43;;;1.33;;
15488;SDS011;7846;48.830;9.116;2023-06-10T14:27:12;1.27;;;1.27;;
15488;SDS011;7846;48.830;9.116;2023-06-10T14:29:37;1.20;;;1.20;;
15488;SDS011;7846;48.830;9.116;2023-06-10T14:32:04;1.43;;;1.30;;
15488;SDS011;7846;48.830;9.116;2023-06-10T14:34:29;1.37;;;1.33;;
15488;SDS011;7846;48.830;9.116;2023-06-10T14:36:58;1.20;;;1.20;;
15488;SDS011;7846;48.830;9.116;2023-06-10T14:39:24;1.37;;;1.30;;
15488;SDS011;7846;48.830;9.116;2023-06-10T14:41:51;1.40;;;1.30;;
15488;SDS011;7846;48.830;9.116;2023-06-10T14:44:18;2.33;;;1.40;;
15488;SDS011;7846;48.830;9.116;2023-06-10T14:46:43;1.40;;;1.40;;
15488;SDS011;7846;48.830;9.116;2023-06-10T14:49:08;1.27;;;1.27;;
15488;SDS011;7846;48.830;9.116;2023-06-10T14:51:35;1.17;;;1.17;;
15488;SDS011;7846;48.830;9.116;2023-06-10T14:54:01;1.40;;;1.40;;
15488;SDS011;7846;48.830;9.116;2023-06-10T14:56:26;1.30;;;1.30;;
15488;SDS011;7846;48.830;9.116;2023-06-10T14:58:54;1.53;;;1.43;;
15488;SDS011;7846;48.830;9.116;2023-06-10T15:01:19;1.23;;;1.23;;
15488;SDS011;7846;48.830;9.116;2023-06-10T15:03:48;1.47;;;1.40;;
15488;SDS011;7846;48.830;9.116;2023-06-10T15:06:14;1.27;;;1.27;;
15488;SDS011;7846;48.830;9.116;2023-06-10T15:08:43;1.23;;;1.23;;
15488;SDS011;7846;48.830;9.116;2023-06-10T15:11:08;1.50;;;1.50;;
15488;SDS011;7846;48.830;9.116;2023-06-10T15:13:36;1.60;;;1.50;;
15488;SDS011;7846;48.830;9.116;2023-06-10T15:16:04;1.30;;;1.30;;
15488;SDS011;7846;48.830;9.116;2023-06-10T15:18:29;1.20;;;1.20;;
15488;SDS011;7846;48.830;9.116;2023-06-10T15:20:55;1.63;;;1.53;;
15488;SDS011;7846;48.830;9.116;2023-06-10T15:23:20;1.40;;;1.40;;